createdAt,value
2022-08-06T00:00:08.052Z,19.86
2022-08-06T00:00:45.783Z,19.86
2022-08-06T00:01:45.838Z,19.76
2022-08-06T00:02:45.825Z,19.77
2022-08-06T00:03:45.809Z,19.71
2022-08-06T00:04:45.830Z,19.56
2022-08-06T00:05:49.010Z,19.51
2022-08-06T00:06:45.820Z,19.55
2022-08-06T00:07:47.953Z,19.51
2022-08-06T00:08:47.316Z,19.63
2022-08-06T00:10:00.141Z,19.56
2022-08-06T00:10:46.482Z,19.56
2022-08-06T00:11:47.587Z,19.54
2022-08-06T00:12:47.926Z,19.51
2022-08-06T00:13:45.843Z,19.47
2022-08-06T00:14:45.850Z,19.46
2022-08-06T00:16:10.509Z,19.47
2022-08-06T00:16:54.241Z,19.44
2022-08-06T00:17:46.165Z,19.41
2022-08-06T00:18:45.857Z,19.33
2022-08-06T00:19:57.993Z,19.37
2022-08-06T00:20:46.642Z,19.33
2022-08-06T00:21:45.881Z,19.32
2022-08-06T00:22:45.890Z,19.33
2022-08-06T00:23:54.905Z,19.33
2022-08-06T00:24:45.895Z,19.28
2022-08-06T00:25:52.044Z,19.28
2022-08-06T00:26:51.615Z,19.33
2022-08-06T00:27:51.446Z,19.33
2022-08-06T00:28:45.897Z,19.31
2022-08-06T00:29:47.520Z,19.23
2022-08-06T00:30:45.906Z,19.33
2022-08-06T00:31:45.928Z,19.28
2022-08-06T00:32:49.201Z,19.32
2022-08-06T00:33:57.263Z,19.21
2022-08-06T00:34:45.921Z,19.25
2022-08-06T00:35:45.979Z,19.29
2022-08-06T00:36:45.933Z,19.21
2022-08-06T00:37:56.923Z,19.10
2022-08-06T00:38:45.940Z,19.07
2022-08-06T00:39:46.053Z,19.00
2022-08-06T00:40:50.673Z,18.98
2022-08-06T00:41:46.529Z,19.00
2022-08-06T00:42:45.964Z,18.87
2022-08-06T00:43:45.958Z,18.87
2022-08-06T00:44:48.086Z,18.87
2022-08-06T00:45:46.179Z,18.87
2022-08-06T00:46:45.973Z,18.98
2022-08-06T00:48:02.034Z,19.00
2022-08-06T00:48:53.793Z,18.90
2022-08-06T00:49:48.664Z,18.87
2022-08-06T00:50:45.987Z,18.76
2022-08-06T00:51:51.019Z,18.69
2022-08-06T00:52:45.995Z,18.73
2022-08-06T00:53:45.991Z,18.75
2022-08-06T00:54:46.005Z,18.70
2022-08-06T00:55:59.721Z,18.69
2022-08-06T00:56:46.004Z,18.70
2022-08-06T00:57:46.021Z,18.75
2022-08-06T00:58:46.024Z,18.72
2022-08-06T00:59:46.034Z,18.60
2022-08-06T01:00:51.896Z,18.50
2022-08-06T01:01:50.684Z,18.63
2022-08-06T01:02:46.061Z,18.48
2022-08-06T01:03:51.804Z,18.50
2022-08-06T01:04:46.052Z,18.55
2022-08-06T01:06:53.480Z,18.54
2022-08-06T01:06:55.173Z,18.55
2022-08-06T01:07:52.260Z,18.54
2022-08-06T01:08:46.057Z,18.57
2022-08-06T01:09:58.045Z,18.60
2022-08-06T01:10:46.065Z,18.54
2022-08-06T01:11:46.055Z,18.60
2022-08-06T01:12:46.065Z,18.58
2022-08-06T01:14:02.832Z,18.66
2022-08-06T01:14:46.078Z,18.55
2022-08-06T01:16:07.866Z,18.75
2022-08-06T01:16:46.064Z,18.65
2022-08-06T01:17:46.066Z,18.52
2022-08-06T01:18:52.726Z,18.62
2022-08-06T01:21:21.877Z,18.58
2022-08-06T01:21:57.005Z,18.57
2022-08-06T01:22:29.531Z,18.62
2022-08-06T01:22:48.350Z,18.57
2022-08-06T01:23:46.099Z,18.57
2022-08-06T01:24:46.112Z,18.58
2022-08-06T01:25:48.440Z,18.51
2022-08-06T01:26:46.723Z,18.51
2022-08-06T01:27:46.117Z,18.52
2022-08-06T01:28:46.302Z,18.51
2022-08-06T01:29:46.113Z,18.54
2022-08-06T01:30:46.122Z,18.63
2022-08-06T01:31:46.135Z,18.57
2022-08-06T01:32:46.137Z,18.54
2022-08-06T01:33:46.503Z,18.51
2022-08-06T01:34:47.230Z,18.47
2022-08-06T01:35:47.331Z,18.55
2022-08-06T01:36:48.189Z,18.54
2022-08-06T01:37:46.149Z,18.51
2022-08-06T01:38:50.782Z,18.52
2022-08-06T01:39:53.309Z,18.57
2022-08-06T01:40:46.143Z,18.48
2022-08-06T01:41:58.114Z,18.44
2022-08-06T01:42:46.148Z,18.39
2022-08-06T01:44:07.286Z,18.39
2022-08-06T01:44:48.805Z,18.33
2022-08-06T01:45:55.247Z,18.44
2022-08-06T01:46:46.164Z,18.45
2022-08-06T01:47:52.105Z,18.37
2022-08-06T01:48:46.180Z,18.44
2022-08-06T01:50:01.194Z,18.37
2022-08-06T01:50:46.346Z,18.44
2022-08-06T01:52:14.934Z,18.39
2022-08-06T01:52:59.593Z,18.36
2022-08-06T01:54:05.804Z,18.39
2022-08-06T01:54:46.208Z,18.44
2022-08-06T01:55:58.608Z,18.45
2022-08-06T01:56:56.518Z,18.48
2022-08-06T01:58:18.614Z,18.50
2022-08-06T01:58:47.601Z,18.48
2022-08-06T01:59:48.417Z,18.41
2022-08-06T02:00:48.261Z,18.36
2022-08-06T02:01:53.928Z,18.36
2022-08-06T02:02:46.268Z,18.32
2022-08-06T02:03:50.120Z,18.30
2022-08-06T02:04:50.258Z,18.27
2022-08-06T02:05:53.655Z,18.32
2022-08-06T02:06:49.397Z,18.33
2022-08-06T02:08:36.554Z,18.32
2022-08-06T02:08:46.259Z,18.27
2022-08-06T02:09:46.265Z,18.18
2022-08-06T02:10:46.249Z,18.23
2022-08-06T02:12:03.982Z,18.20
2022-08-06T02:12:46.277Z,18.20
2022-08-06T02:13:46.966Z,18.25
2022-08-06T02:14:46.263Z,18.26
2022-08-06T02:15:59.800Z,18.17
2022-08-06T02:16:46.268Z,18.20
2022-08-06T02:18:04.454Z,18.17
2022-08-06T02:18:46.269Z,18.17
2022-08-06T02:19:48.268Z,18.11
2022-08-06T02:20:53.025Z,18.17
2022-08-06T02:21:50.354Z,18.11
2022-08-06T02:22:46.303Z,18.20
2022-08-06T02:23:46.285Z,18.20
2022-08-06T02:24:46.291Z,18.18
2022-08-06T02:25:46.289Z,18.36
2022-08-06T02:26:46.286Z,18.17
2022-08-06T02:27:52.969Z,18.20
2022-08-06T02:28:50.442Z,18.17
2022-08-06T02:30:05.662Z,18.21
2022-08-06T02:30:49.261Z,18.25
2022-08-06T02:31:50.829Z,18.21
2022-08-06T02:32:46.336Z,18.23
2022-08-06T02:34:03.016Z,18.17
2022-08-06T02:34:46.318Z,18.05
2022-08-06T02:35:46.319Z,18.21
2022-08-06T02:36:50.553Z,18.12
2022-08-06T02:38:02.519Z,18.20
2022-08-06T02:38:52.655Z,18.15
2022-08-06T02:39:51.531Z,18.08
2022-08-06T02:40:46.328Z,18.10
2022-08-06T02:41:55.085Z,18.07
2022-08-06T02:42:48.384Z,18.07
2022-08-06T02:43:46.344Z,18.07
2022-08-06T02:44:47.037Z,18.10
2022-08-06T02:45:58.695Z,17.97
2022-08-06T02:46:47.822Z,17.95
2022-08-06T02:48:00.577Z,18.00
2022-08-06T02:48:47.331Z,17.93
2022-08-06T02:49:56.779Z,17.82
2022-08-06T02:50:46.355Z,17.96
2022-08-06T02:52:32.204Z,17.95
2022-08-06T02:52:47.729Z,17.97
2022-08-06T02:54:04.842Z,17.90
2022-08-06T02:54:47.136Z,17.79
2022-08-06T02:55:46.374Z,17.79
2022-08-06T02:56:46.371Z,17.84
2022-08-06T02:57:50.874Z,17.82
2022-08-06T02:58:58.425Z,17.93
2022-08-06T02:59:46.389Z,17.87
2022-08-06T03:00:51.865Z,17.87
2022-08-06T03:01:46.471Z,17.95
2022-08-06T03:02:46.400Z,17.95
2022-08-06T03:03:54.675Z,17.92
2022-08-06T03:04:54.343Z,17.89
2022-08-06T03:05:55.272Z,17.89
2022-08-06T03:06:46.414Z,17.87
2022-08-06T03:07:46.417Z,17.78
2022-08-06T03:08:46.420Z,17.75
2022-08-06T03:09:49.585Z,17.79
2022-08-06T03:10:46.423Z,17.81
2022-08-06T03:11:47.466Z,17.84
2022-08-06T03:12:46.428Z,17.81
2022-08-06T03:13:46.429Z,17.81
2022-08-06T03:15:06.958Z,17.89
2022-08-06T03:16:00.898Z,17.84
2022-08-06T03:16:50.777Z,17.81
2022-08-06T03:17:46.426Z,17.87
2022-08-06T03:18:46.445Z,17.82
2022-08-06T03:19:57.913Z,17.81
2022-08-06T03:20:46.482Z,17.89
2022-08-06T03:21:55.490Z,17.87
2022-08-06T03:22:46.820Z,17.89
2022-08-06T03:23:46.447Z,17.86
2022-08-06T03:24:46.478Z,17.86
2022-08-06T03:25:46.461Z,17.81
2022-08-06T03:26:46.464Z,17.86
2022-08-06T03:27:46.466Z,17.86
2022-08-06T03:28:46.471Z,17.82
2022-08-06T03:29:46.473Z,17.81
2022-08-06T03:30:46.499Z,17.82
2022-08-06T03:31:58.320Z,17.90
2022-08-06T03:32:51.873Z,17.74
2022-08-06T03:33:53.871Z,17.75
2022-08-06T03:34:46.490Z,17.81
2022-08-06T03:35:51.081Z,17.78
2022-08-06T03:36:46.505Z,17.77
2022-08-06T03:37:59.920Z,17.74
2022-08-06T03:38:46.500Z,17.79
2022-08-06T03:39:47.324Z,17.79
2022-08-06T03:40:46.512Z,17.82
2022-08-06T03:42:08.390Z,17.79
2022-08-06T03:42:46.529Z,17.77
2022-08-06T03:44:02.801Z,17.77
2022-08-06T03:44:46.517Z,17.81
2022-08-06T03:45:55.721Z,17.77
2022-08-06T03:46:46.542Z,17.78
2022-08-06T03:47:48.861Z,17.79
2022-08-06T03:48:46.522Z,17.75
2022-08-06T03:49:46.539Z,17.75
2022-08-06T03:50:46.527Z,17.77
2022-08-06T03:51:52.109Z,17.79
2022-08-06T03:52:46.540Z,17.77
2022-08-06T03:53:50.054Z,17.79
2022-08-06T03:54:46.581Z,17.81
2022-08-06T03:55:46.612Z,17.82
2022-08-06T03:56:49.694Z,17.79
2022-08-06T03:57:49.837Z,17.81
2022-08-06T03:58:48.092Z,17.78
2022-08-06T03:59:58.621Z,17.77
2022-08-06T04:00:46.617Z,17.75
2022-08-06T04:01:50.142Z,17.77
2022-08-06T04:02:47.502Z,17.75
2022-08-06T04:03:46.573Z,17.75
2022-08-06T04:04:46.571Z,17.74
2022-08-06T04:05:47.906Z,17.63
2022-08-06T04:06:46.578Z,17.70
2022-08-06T04:07:54.606Z,17.68
2022-08-06T04:08:46.587Z,17.75
2022-08-06T04:09:58.517Z,17.68
2022-08-06T04:10:53.021Z,17.74
2022-08-06T04:12:37.324Z,17.68
2022-08-06T04:13:38.075Z,17.64
2022-08-06T04:14:06.976Z,17.64
2022-08-06T04:14:46.603Z,17.64
2022-08-06T04:15:49.529Z,17.64
2022-08-06T04:16:54.409Z,17.63
2022-08-06T04:17:46.611Z,17.74
2022-08-06T04:18:49.770Z,17.71
2022-08-06T04:19:46.601Z,17.74
2022-08-06T04:20:46.601Z,17.68
2022-08-06T04:22:58.228Z,17.66
2022-08-06T04:23:08.562Z,17.71
2022-08-06T04:23:46.624Z,17.71
2022-08-06T04:24:46.634Z,17.75
2022-08-06T04:25:48.557Z,17.64
2022-08-06T04:26:46.620Z,17.77
2022-08-06T04:27:51.681Z,17.68
2022-08-06T04:28:53.159Z,17.78
2022-08-06T04:29:57.142Z,17.74
2022-08-06T04:30:47.173Z,17.72
2022-08-06T04:32:12.300Z,17.79
2022-08-06T04:33:00.841Z,17.77
2022-08-06T04:33:47.245Z,17.75
2022-08-06T04:36:03.257Z,17.75
2022-08-06T04:36:06.982Z,17.75
2022-08-06T04:36:53.890Z,17.78
2022-08-06T04:37:48.015Z,17.89
2022-08-06T04:38:51.556Z,17.78
2022-08-06T04:39:49.964Z,17.82
2022-08-06T04:40:53.214Z,17.82
2022-08-06T04:41:46.673Z,17.79
2022-08-06T04:42:46.664Z,17.86
2022-08-06T04:43:52.778Z,17.89
2022-08-06T04:45:00.052Z,17.82
2022-08-06T04:46:14.306Z,17.87
2022-08-06T04:46:46.679Z,17.84
2022-08-06T04:47:47.629Z,17.86
2022-08-06T04:48:47.364Z,17.93
2022-08-06T04:50:01.907Z,17.96
2022-08-06T04:50:46.685Z,17.99
2022-08-06T04:52:35.651Z,17.97
2022-08-06T04:52:49.053Z,17.97
2022-08-06T04:53:57.638Z,17.97
2022-08-06T04:54:46.713Z,17.99
2022-08-06T04:56:03.054Z,17.99
2022-08-06T04:56:50.017Z,18.02
2022-08-06T04:57:57.065Z,17.97
2022-08-06T04:58:46.726Z,17.99
2022-08-06T04:59:49.943Z,17.96
2022-08-06T05:00:59.893Z,18.03
2022-08-06T05:01:56.874Z,17.99
2022-08-06T05:02:46.747Z,17.93
2022-08-06T05:04:06.751Z,17.99
2022-08-06T05:04:46.736Z,17.93
2022-08-06T05:05:46.749Z,17.92
2022-08-06T05:06:47.405Z,17.89
2022-08-06T05:07:51.939Z,17.84
2022-08-06T05:08:52.272Z,17.86
2022-08-06T05:09:54.265Z,17.84
2022-08-06T05:10:46.738Z,17.93
2022-08-06T05:11:57.577Z,17.84
2022-08-06T05:12:46.761Z,17.82
2022-08-06T05:13:46.771Z,17.84
2022-08-06T05:14:46.775Z,17.87
2022-08-06T05:15:51.294Z,17.92
2022-08-06T05:16:53.553Z,17.89
2022-08-06T05:17:48.350Z,17.86
2022-08-06T05:19:20.103Z,17.89
2022-08-06T05:19:46.762Z,17.92
2022-08-06T05:20:46.792Z,17.90
2022-08-06T05:22:11.637Z,17.90
2022-08-06T05:22:55.029Z,17.72
2022-08-06T05:23:46.960Z,17.70
2022-08-06T05:25:01.321Z,17.70
2022-08-06T05:25:52.529Z,17.74
2022-08-06T05:26:46.808Z,17.71
2022-08-06T05:28:03.888Z,17.72
2022-08-06T05:28:47.346Z,17.72
2022-08-06T05:29:49.571Z,17.68
2022-08-06T05:30:46.831Z,17.78
2022-08-06T05:31:47.056Z,17.75
2022-08-06T05:32:46.797Z,17.77
2022-08-06T05:33:46.806Z,17.79
2022-08-06T05:34:51.849Z,17.75
2022-08-06T05:36:01.755Z,17.78
2022-08-06T05:36:46.860Z,17.75
2022-08-06T05:38:02.072Z,17.78
2022-08-06T05:38:58.657Z,17.74
2022-08-06T05:39:58.141Z,17.77
2022-08-06T05:40:52.474Z,17.77
2022-08-06T05:41:46.830Z,17.84
2022-08-06T05:42:57.538Z,17.84
2022-08-06T05:43:59.944Z,17.93
2022-08-06T05:44:46.854Z,17.86
2022-08-06T05:45:46.831Z,17.87
2022-08-06T05:46:46.840Z,17.93
2022-08-06T05:47:56.282Z,17.96
2022-08-06T05:48:46.852Z,18.00
2022-08-06T05:49:56.080Z,17.93
2022-08-06T05:50:46.853Z,17.97
2022-08-06T05:51:46.861Z,18.00
2022-08-06T05:52:46.854Z,17.99
2022-08-06T05:54:04.766Z,17.95
2022-08-06T05:54:46.877Z,18.02
2022-08-06T05:55:49.531Z,18.00
2022-08-06T05:56:46.877Z,17.97
2022-08-06T05:57:53.519Z,18.00
2022-08-06T05:58:51.361Z,18.10
2022-08-06T05:59:57.822Z,18.05
2022-08-06T06:00:46.910Z,18.11
2022-08-06T06:01:46.883Z,18.05
2022-08-06T06:02:46.888Z,18.12
2022-08-06T06:03:48.896Z,18.05
2022-08-06T06:06:02.036Z,18.26
2022-08-06T06:06:06.913Z,18.25
2022-08-06T06:06:46.887Z,18.23
2022-08-06T06:08:09.714Z,18.23
2022-08-06T06:08:57.125Z,18.26
2022-08-06T06:09:56.867Z,18.30
2022-08-06T06:10:53.207Z,18.30
2022-08-06T06:12:01.698Z,18.26
2022-08-06T06:12:46.903Z,18.37
2022-08-06T06:13:58.645Z,18.35
2022-08-06T06:14:46.910Z,18.47
2022-08-06T06:16:00.894Z,18.48
2022-08-06T06:16:46.923Z,18.52
2022-08-06T06:17:48.469Z,18.65
2022-08-06T06:18:46.921Z,18.69
2022-08-06T06:19:51.945Z,18.70
2022-08-06T06:21:03.891Z,18.66
2022-08-06T06:21:49.012Z,18.66
2022-08-06T06:22:46.946Z,18.73
2022-08-06T06:23:46.948Z,18.72
2022-08-06T06:24:46.943Z,18.78
2022-08-06T06:25:47.125Z,18.81
2022-08-06T06:26:49.635Z,18.87
2022-08-06T06:27:46.962Z,18.88
2022-08-06T06:28:47.393Z,19.02
2022-08-06T06:30:02.213Z,19.04
2022-08-06T06:30:52.935Z,19.02
2022-08-06T06:32:06.169Z,19.00
2022-08-06T06:32:47.055Z,19.16
2022-08-06T06:33:47.560Z,19.18
2022-08-06T06:34:46.997Z,19.21
2022-08-06T06:35:54.772Z,19.10
2022-08-06T06:36:47.009Z,19.22
2022-08-06T06:37:47.776Z,19.19
2022-08-06T06:38:46.993Z,19.22
2022-08-06T06:39:47.094Z,19.25
2022-08-06T06:41:00.312Z,19.26
2022-08-06T06:41:47.001Z,19.33
2022-08-06T06:42:47.007Z,19.37
2022-08-06T06:43:47.016Z,19.29
2022-08-06T06:45:04.718Z,19.48
2022-08-06T06:46:34.567Z,19.50
2022-08-06T06:46:49.598Z,19.46
2022-08-06T06:47:47.032Z,19.61
2022-08-06T06:48:47.012Z,19.61
2022-08-06T06:50:01.376Z,19.66
2022-08-06T06:50:48.632Z,19.65
2022-08-06T06:51:57.524Z,19.80
2022-08-06T06:52:47.036Z,19.88
2022-08-06T06:54:06.258Z,19.83
2022-08-06T06:54:59.869Z,19.88
2022-08-06T06:55:55.991Z,20.02
2022-08-06T06:56:47.052Z,20.18
2022-08-06T06:57:47.051Z,20.16
2022-08-06T06:58:47.777Z,20.17
2022-08-06T07:00:04.567Z,20.16
2022-08-06T07:00:47.577Z,20.17
2022-08-06T07:01:51.023Z,20.14
2022-08-06T07:02:47.230Z,20.13
2022-08-06T07:03:47.103Z,20.08
2022-08-06T07:04:47.095Z,20.10
2022-08-06T07:06:04.485Z,20.13
2022-08-06T07:06:47.077Z,20.10
2022-08-06T07:07:49.766Z,20.18
2022-08-06T07:08:47.092Z,20.21
2022-08-06T07:09:59.833Z,20.33
2022-08-06T07:10:47.091Z,20.39
2022-08-06T07:12:02.180Z,20.43
2022-08-06T07:12:51.083Z,20.58
2022-08-06T07:13:51.490Z,20.55
2022-08-06T07:14:49.759Z,20.70
2022-08-06T07:15:54.024Z,20.66
2022-08-06T07:16:47.115Z,20.80
2022-08-06T07:17:48.895Z,20.85
2022-08-06T07:18:49.811Z,20.85
2022-08-06T07:19:47.133Z,20.80
2022-08-06T07:20:47.146Z,20.95
2022-08-06T07:21:47.807Z,20.89
2022-08-06T07:24:03.252Z,20.91
2022-08-06T07:24:06.362Z,20.97
2022-08-06T07:24:47.307Z,20.91
2022-08-06T07:25:54.223Z,20.94
2022-08-06T07:26:50.695Z,20.95
2022-08-06T07:27:52.990Z,20.94
2022-08-06T07:28:47.158Z,20.98
2022-08-06T07:29:59.969Z,20.91
2022-08-06T07:30:47.198Z,20.95
2022-08-06T07:31:47.168Z,21.13
2022-08-06T07:32:48.644Z,21.16
2022-08-06T07:34:00.707Z,21.19
2022-08-06T07:34:47.182Z,21.25
2022-08-06T07:35:47.183Z,21.25
2022-08-06T07:36:55.508Z,21.35
2022-08-06T07:37:47.192Z,21.35
2022-08-06T07:38:47.223Z,21.46
2022-08-06T07:39:47.266Z,21.43
2022-08-06T07:40:52.966Z,21.31
2022-08-06T07:42:07.826Z,21.31
2022-08-06T07:42:47.229Z,21.28
2022-08-06T07:43:51.694Z,21.21
2022-08-06T07:44:56.341Z,21.19
2022-08-06T07:45:54.421Z,21.14
2022-08-06T07:46:47.623Z,21.22
2022-08-06T07:47:55.578Z,21.24
2022-08-06T07:48:52.613Z,21.32
2022-08-06T07:49:59.863Z,21.24
2022-08-06T07:50:47.250Z,21.34
2022-08-06T07:51:47.257Z,21.38
2022-08-06T07:52:47.273Z,21.40
2022-08-06T07:53:57.207Z,21.42
2022-08-06T07:54:47.274Z,21.38
2022-08-06T07:55:47.327Z,21.49
2022-08-06T07:57:00.113Z,21.58
2022-08-06T07:57:55.441Z,21.62
2022-08-06T07:58:47.312Z,21.74
2022-08-06T07:59:48.648Z,21.86
2022-08-06T08:00:49.892Z,21.88
2022-08-06T08:01:49.747Z,21.92
2022-08-06T08:02:47.305Z,22.12
2022-08-06T08:03:58.671Z,22.14
2022-08-06T08:04:52.075Z,22.22
2022-08-06T08:06:00.679Z,22.17
2022-08-06T08:06:47.343Z,22.27
2022-08-06T08:07:53.757Z,22.21
2022-08-06T08:08:47.353Z,22.17
2022-08-06T08:10:01.893Z,22.27
2022-08-06T08:10:47.340Z,22.22
2022-08-06T08:12:17.215Z,22.24
2022-08-06T08:12:52.444Z,22.33
2022-08-06T08:13:47.358Z,22.43
2022-08-06T08:14:50.319Z,22.42
2022-08-06T08:15:47.361Z,22.45
2022-08-06T08:16:49.069Z,22.39
2022-08-06T08:17:57.029Z,22.36
2022-08-06T08:18:47.389Z,22.47
2022-08-06T08:19:47.387Z,22.54
2022-08-06T08:20:51.216Z,22.52
2022-08-06T08:21:47.388Z,22.51
2022-08-06T08:22:48.322Z,22.49
2022-08-06T08:23:47.408Z,22.60
2022-08-06T08:24:54.017Z,22.62
2022-08-06T08:25:47.419Z,22.77
2022-08-06T08:27:04.299Z,22.79
2022-08-06T08:27:47.416Z,22.94
2022-08-06T08:28:47.436Z,22.95
2022-08-06T08:29:54.681Z,22.90
2022-08-06T08:30:49.636Z,22.90
2022-08-06T08:31:59.926Z,22.86
2022-08-06T08:32:47.471Z,22.92
2022-08-06T08:33:47.459Z,22.94
2022-08-06T08:34:52.127Z,23.12
2022-08-06T08:35:50.381Z,23.12
2022-08-06T08:36:47.477Z,23.09
2022-08-06T08:37:47.477Z,23.22
2022-08-06T08:38:47.488Z,23.35
2022-08-06T08:39:47.552Z,23.33
2022-08-06T08:40:47.487Z,23.48
2022-08-06T08:41:49.529Z,23.55
2022-08-06T08:42:47.525Z,23.63
2022-08-06T08:44:01.017Z,23.68
2022-08-06T08:44:47.534Z,23.69
2022-08-06T08:45:47.506Z,23.76
2022-08-06T08:46:57.436Z,23.85
2022-08-06T08:47:57.464Z,23.87
2022-08-06T08:48:47.532Z,23.85
2022-08-06T08:49:47.655Z,23.76
2022-08-06T08:50:47.543Z,23.73
2022-08-06T08:51:47.541Z,23.58
2022-08-06T08:52:47.660Z,23.55
2022-08-06T08:53:47.557Z,23.48
2022-08-06T08:54:47.584Z,23.54
2022-08-06T08:57:07.596Z,23.48
2022-08-06T08:57:10.780Z,23.48
2022-08-06T08:58:40.788Z,23.46
2022-08-06T08:59:02.202Z,23.48
2022-08-06T08:59:56.893Z,23.40
2022-08-06T09:00:50.630Z,23.42
2022-08-06T09:01:52.953Z,23.48
2022-08-06T09:02:48.692Z,23.47
2022-08-06T09:03:47.608Z,23.35
2022-08-06T09:04:47.633Z,23.28
2022-08-06T09:05:47.859Z,23.32
2022-08-06T09:06:51.600Z,23.25
2022-08-06T09:08:00.842Z,23.19
2022-08-06T09:09:01.640Z,23.02
2022-08-06T09:10:00.957Z,23.09
2022-08-06T09:10:47.671Z,23.01
2022-08-06T09:12:06.127Z,23.04
2022-08-06T09:12:47.923Z,23.07
2022-08-06T09:13:51.643Z,23.04
2022-08-06T09:14:47.673Z,23.01
2022-08-06T09:15:51.910Z,22.92
2022-08-06T09:16:50.429Z,23.05
2022-08-06T09:18:26.047Z,23.16
2022-08-06T09:18:47.702Z,23.05
2022-08-06T09:19:47.707Z,23.09
2022-08-06T09:20:47.714Z,23.12
2022-08-06T09:21:51.105Z,23.05
2022-08-06T09:22:47.741Z,23.10
2022-08-06T09:23:49.153Z,23.10
2022-08-06T09:24:47.733Z,23.09
2022-08-06T09:25:50.831Z,23.22
2022-08-06T09:26:54.345Z,23.20
2022-08-06T09:27:48.929Z,23.22
2022-08-06T09:28:48.967Z,23.36
2022-08-06T09:30:04.627Z,23.36
2022-08-06T09:30:47.773Z,23.53
2022-08-06T09:31:47.786Z,23.47
2022-08-06T09:32:54.849Z,23.55
2022-08-06T09:34:29.360Z,23.72
2022-08-06T09:34:50.732Z,23.83
2022-08-06T09:35:47.815Z,23.87
2022-08-06T09:36:47.799Z,23.90
2022-08-06T09:37:54.121Z,23.91
2022-08-06T09:38:47.814Z,23.95
2022-08-06T09:40:05.235Z,24.00
2022-08-06T09:40:47.828Z,24.05
2022-08-06T09:41:47.823Z,24.09
2022-08-06T09:42:48.090Z,24.06
2022-08-06T09:44:03.367Z,24.08
2022-08-06T09:44:47.865Z,24.20
2022-08-06T09:45:47.858Z,24.08
2022-08-06T09:46:48.900Z,24.24
2022-08-06T09:47:58.059Z,24.35
2022-08-06T09:49:11.733Z,24.34
2022-08-06T09:50:00.185Z,24.45
2022-08-06T09:50:47.910Z,24.52
2022-08-06T09:51:51.215Z,24.62
2022-08-06T09:52:47.890Z,24.67
2022-08-06T09:54:03.021Z,24.49
2022-08-06T09:54:52.693Z,24.32
2022-08-06T09:55:47.925Z,24.31
2022-08-06T09:56:47.923Z,24.30
2022-08-06T09:57:47.918Z,24.10
2022-08-06T09:58:47.926Z,24.10
2022-08-06T09:59:50.314Z,24.13
2022-08-06T10:00:50.815Z,24.13
2022-08-06T10:01:47.942Z,24.28
2022-08-06T10:02:51.774Z,24.45
2022-08-06T10:04:03.495Z,24.39
2022-08-06T10:04:48.018Z,24.39
2022-08-06T10:05:50.124Z,24.49
2022-08-06T10:06:47.975Z,24.58
2022-08-06T10:07:52.568Z,24.69
2022-08-06T10:08:51.282Z,24.68
2022-08-06T10:09:47.993Z,24.71
2022-08-06T10:10:49.813Z,24.71
2022-08-06T10:11:49.985Z,24.69
2022-08-06T10:12:48.014Z,24.69
2022-08-06T10:13:48.801Z,24.64
2022-08-06T10:14:48.041Z,24.78
2022-08-06T10:16:01.970Z,24.85
2022-08-06T10:16:48.050Z,25.00
2022-08-06T10:17:56.249Z,25.08
2022-08-06T10:18:56.693Z,25.17
2022-08-06T10:19:52.333Z,25.38
2022-08-06T10:20:48.217Z,25.39
2022-08-06T10:21:48.079Z,25.36
2022-08-06T10:22:48.077Z,25.46
2022-08-06T10:23:51.668Z,25.50
2022-08-06T10:24:49.789Z,25.54
2022-08-06T10:25:48.089Z,25.75
2022-08-06T10:26:48.111Z,25.80
2022-08-06T10:27:48.958Z,25.88
2022-08-06T10:28:48.126Z,25.94
2022-08-06T10:29:48.129Z,25.92
2022-08-06T10:30:48.137Z,25.92
2022-08-06T10:31:52.983Z,25.87
2022-08-06T10:32:48.198Z,25.88
2022-08-06T10:33:48.146Z,25.79
2022-08-06T10:34:48.220Z,25.76
2022-08-06T10:35:49.107Z,25.80
2022-08-06T10:36:49.061Z,25.91
2022-08-06T10:37:50.068Z,25.92
2022-08-06T10:38:52.767Z,25.94
2022-08-06T10:40:07.937Z,25.99
2022-08-06T10:40:58.612Z,26.02
2022-08-06T10:42:00.847Z,26.09
2022-08-06T10:42:48.258Z,26.15
2022-08-06T10:43:48.226Z,26.12
2022-08-06T10:44:48.238Z,26.28
2022-08-06T10:45:49.707Z,26.57
2022-08-06T10:46:48.258Z,26.55
2022-08-06T10:48:59.605Z,26.67
2022-08-06T10:50:19.930Z,26.87
2022-08-06T10:50:24.802Z,26.94
2022-08-06T10:50:55.642Z,27.13
2022-08-06T10:51:57.054Z,27.04
2022-08-06T10:52:48.352Z,26.91
2022-08-06T10:54:00.611Z,26.76
2022-08-06T10:54:51.127Z,26.67
2022-08-06T10:55:48.384Z,26.65
2022-08-06T10:56:48.385Z,26.60
2022-08-06T10:57:48.404Z,26.67
2022-08-06T10:58:48.438Z,27.02
2022-08-06T10:59:50.110Z,27.41
2022-08-06T11:00:52.920Z,27.79
2022-08-06T11:01:48.454Z,28.24
2022-08-06T11:02:56.207Z,28.59
2022-08-06T11:03:48.624Z,29.27
2022-08-06T11:04:48.492Z,29.58
2022-08-06T11:05:54.096Z,29.94
2022-08-06T11:06:52.876Z,30.23
2022-08-06T11:08:09.950Z,30.69
2022-08-06T11:08:56.126Z,31.01
2022-08-06T11:10:00.169Z,31.09
2022-08-06T11:10:49.039Z,31.23
2022-08-06T11:12:05.247Z,31.72
2022-08-06T11:12:50.625Z,31.66
2022-08-06T11:13:52.527Z,32.07
2022-08-06T11:14:48.664Z,32.48
2022-08-06T11:15:48.660Z,31.69
2022-08-06T11:16:51.411Z,31.19
2022-08-06T11:17:48.707Z,30.72
2022-08-06T11:18:48.732Z,29.90
2022-08-06T11:19:56.740Z,29.82
2022-08-06T11:20:48.759Z,29.43
2022-08-06T11:21:59.289Z,29.19
2022-08-06T11:22:55.033Z,29.14
2022-08-06T11:23:58.303Z,28.81
2022-08-06T11:24:53.047Z,29.80
2022-08-06T11:25:48.843Z,30.69
2022-08-06T11:26:51.441Z,31.32
2022-08-06T11:27:50.417Z,31.93
2022-08-06T11:28:48.880Z,32.45
2022-08-06T11:30:03.329Z,32.85
2022-08-06T11:30:48.928Z,33.32
2022-08-06T11:31:57.025Z,33.56
2022-08-06T11:32:48.967Z,34.10
2022-08-06T11:33:48.957Z,34.52
2022-08-06T11:34:51.350Z,34.12
2022-08-06T11:35:52.665Z,34.10
2022-08-06T11:36:57.504Z,33.37
2022-08-06T11:38:03.974Z,32.94
2022-08-06T11:38:51.259Z,32.55
2022-08-06T11:39:49.147Z,32.13
2022-08-06T11:40:49.049Z,31.63
2022-08-06T11:41:54.343Z,31.26
2022-08-06T11:42:50.453Z,31.07
2022-08-06T11:43:58.376Z,30.61
2022-08-06T11:44:49.120Z,30.13
2022-08-06T11:46:21.447Z,29.87
2022-08-06T11:46:49.879Z,29.79
2022-08-06T11:47:49.184Z,29.58
2022-08-06T11:48:49.169Z,29.33
2022-08-06T11:49:49.177Z,29.18
2022-08-06T11:50:49.186Z,29.08
2022-08-06T11:52:03.176Z,28.85
2022-08-06T11:52:49.226Z,29.18
2022-08-06T11:53:53.034Z,29.36
2022-08-06T11:54:49.225Z,30.04
2022-08-06T11:55:49.243Z,30.69
2022-08-06T11:56:49.256Z,31.04
2022-08-06T11:57:49.414Z,31.29
2022-08-06T11:58:49.316Z,31.53
2022-08-06T11:59:49.276Z,31.70
2022-08-06T12:00:49.311Z,31.46
2022-08-06T12:01:49.351Z,31.26
2022-08-06T12:02:49.316Z,31.26
2022-08-06T12:03:49.342Z,30.77
2022-08-06T12:04:49.343Z,30.08
2022-08-06T12:05:56.885Z,29.73
2022-08-06T12:06:49.376Z,29.34
2022-08-06T12:07:52.351Z,29.16
2022-08-06T12:08:49.382Z,29.02
2022-08-06T12:09:49.391Z,28.88
2022-08-06T12:10:49.416Z,28.74
2022-08-06T12:11:49.411Z,28.76
2022-08-06T12:12:50.174Z,28.77
2022-08-06T12:13:57.939Z,28.92
2022-08-06T12:14:50.966Z,28.86
2022-08-06T12:15:59.061Z,28.78
2022-08-06T12:16:53.760Z,28.88
2022-08-06T12:18:20.607Z,28.89
2022-08-06T12:18:49.472Z,28.90
2022-08-06T12:20:00.872Z,28.78
2022-08-06T12:20:53.583Z,28.68
2022-08-06T12:21:49.507Z,28.71
2022-08-06T12:22:49.700Z,28.76
2022-08-06T12:23:56.259Z,28.59
2022-08-06T12:25:11.235Z,28.46
2022-08-06T12:25:49.543Z,28.31
2022-08-06T12:26:49.569Z,28.22
2022-08-06T12:27:54.438Z,28.19
2022-08-06T12:28:49.564Z,28.02
2022-08-06T12:29:49.571Z,27.93
2022-08-06T12:30:49.580Z,27.96
2022-08-06T12:31:50.490Z,27.84
2022-08-06T12:32:56.788Z,27.77
2022-08-06T12:33:49.608Z,27.29
2022-08-06T12:34:58.269Z,27.18
2022-08-06T12:35:49.624Z,27.04
2022-08-06T12:36:49.656Z,26.88
2022-08-06T12:37:51.227Z,26.88
2022-08-06T12:38:49.675Z,26.91
2022-08-06T12:39:49.716Z,26.97
2022-08-06T12:40:49.689Z,27.06
2022-08-06T12:41:49.708Z,27.17
2022-08-06T12:42:53.124Z,27.19
2022-08-06T12:43:57.434Z,27.25
2022-08-06T12:44:57.113Z,27.22
2022-08-06T12:46:06.374Z,27.36
2022-08-06T12:46:49.732Z,27.22
2022-08-06T12:48:03.683Z,27.12
2022-08-06T12:48:49.760Z,27.22
2022-08-06T12:49:49.775Z,27.18
2022-08-06T12:50:49.797Z,27.09
2022-08-06T12:51:54.167Z,26.94